EZY51UW EGNS-EGGD
Flight info
| Callsign | EZY51UW |
|---|---|
| Flight time | 0h 38m |
| Altitude | 23000 |
| Route | TIMIS Q39 NOMSU Q4 WAL N862 WEVBE |
| Aircraft | A320/M-SDE2E3FGHIJ1RWXYZ/LB1 |
Departure
| Time | 2026-04-22 10:03 |
|---|---|
| Airport | Isle of Man Airport (EGNS) |
Arrival
| Time | 2026-04-22 10:41 |
|---|---|
| Airport | Bristol Airport (EGGD) |
| Time | Latitude | Longitude | Altitude | Speed | Heading |
|---|---|---|---|---|---|
| 2026-04-22 09:09 | 54.08603 | -4.63215 | 45 ft | 0 kts | 224° |
| 2026-04-22 09:56 | 54.08603 | -4.63214 | 45 ft | 1 kts | 224° |
| 2026-04-22 09:56 | 54.08620 | -4.63187 | 45 ft | 4 kts | 218° |
| 2026-04-22 09:56 | 54.08641 | -4.63167 | 42 ft | 4 kts | 174° |
| 2026-04-22 09:57 | 54.08653 | -4.63175 | 45 ft | 1 kts | 134° |
| 2026-04-22 09:57 | 54.08654 | -4.63178 | 45 ft | 0 kts | 134° |
| 2026-04-22 09:59 | 54.08646 | -4.63164 | 41 ft | 7 kts | 134° |
| 2026-04-22 09:59 | 54.08592 | -4.63069 | 46 ft | 12 kts | 134° |
| 2026-04-22 10:00 | 54.08511 | -4.63014 | 42 ft | 13 kts | 167° |
| 2026-04-22 10:00 | 54.08428 | -4.62989 | 43 ft | 7 kts | 195° |
| 2026-04-22 10:00 | 54.08404 | -4.63073 | 41 ft | 11 kts | 258° |
| 2026-04-22 10:00 | 54.08381 | -4.63254 | 43 ft | 20 kts | 258° |
| 2026-04-22 10:01 | 54.08357 | -4.63445 | 42 ft | 13 kts | 258° |
| 2026-04-22 10:01 | 54.08340 | -4.63579 | 46 ft | 8 kts | 253° |
| 2026-04-22 10:01 | 54.08308 | -4.63693 | 46 ft | 16 kts | 242° |
| 2026-04-22 10:01 | 54.08253 | -4.63861 | 43 ft | 12 kts | 240° |
| 2026-04-22 10:02 | 54.08177 | -4.63894 | 35 ft | 14 kts | 167° |
| 2026-04-22 10:02 | 54.08157 | -4.63762 | 36 ft | 14 kts | 78° |
| 2026-04-22 10:02 | 54.08217 | -4.63265 | 39 ft | 76 kts | 77° |
| 2026-04-22 10:02 | 54.08365 | -4.62067 | 70 ft | 127 kts | 79° |
| 2026-04-22 10:03 | 54.08555 | -4.60561 | 694 ft | 132 kts | 79° |
| 2026-04-22 10:03 | 54.08754 | -4.59043 | 1398 ft | 130 kts | 82° |
| 2026-04-22 10:03 | 54.08901 | -4.57495 | 1925 ft | 140 kts | 94° |
| 2026-04-22 10:03 | 54.08391 | -4.55984 | 2299 ft | 166 kts | 139° |
| 2026-04-22 10:04 | 54.07266 | -4.54996 | 2660 ft | 198 kts | 150° |
| 2026-04-22 10:04 | 54.05919 | -4.54036 | 3152 ft | 222 kts | 152° |
| 2026-04-22 10:04 | 54.04436 | -4.53001 | 3900 ft | 235 kts | 153° |
| 2026-04-22 10:04 | 54.02900 | -4.51928 | 4813 ft | 242 kts | 153° |
| 2026-04-22 10:05 | 54.01327 | -4.50814 | 5729 ft | 247 kts | 153° |
| 2026-04-22 10:05 | 53.99736 | -4.49672 | 6701 ft | 249 kts | 154° |
| 2026-04-22 10:05 | 53.98139 | -4.48488 | 7576 ft | 253 kts | 150° |
| 2026-04-22 10:05 | 53.96652 | -4.46870 | 8438 ft | 255 kts | 144° |
| 2026-04-22 10:06 | 53.95184 | -4.45153 | 9368 ft | 257 kts | 144° |
| 2026-04-22 10:06 | 53.93698 | -4.43405 | 10231 ft | 262 kts | 144° |
| 2026-04-22 10:06 | 53.92173 | -4.41613 | 10823 ft | 276 kts | 144° |
| 2026-04-22 10:06 | 53.90537 | -4.39690 | 11247 ft | 293 kts | 144° |
| 2026-04-22 10:07 | 53.88847 | -4.37711 | 11955 ft | 300 kts | 144° |
| 2026-04-22 10:07 | 53.87106 | -4.35677 | 12645 ft | 307 kts | 144° |
| 2026-04-22 10:07 | 53.85347 | -4.33631 | 13498 ft | 308 kts | 144° |
| 2026-04-22 10:07 | 53.83574 | -4.31575 | 14288 ft | 311 kts | 144° |
| 2026-04-22 10:08 | 53.81774 | -4.29489 | 14941 ft | 315 kts | 144° |
| 2026-04-22 10:08 | 53.79958 | -4.27383 | 15563 ft | 320 kts | 145° |
| 2026-04-22 10:08 | 53.78106 | -4.25233 | 16120 ft | 327 kts | 145° |
| 2026-04-22 10:08 | 53.76209 | -4.23038 | 16647 ft | 334 kts | 146° |
| 2026-04-22 10:09 | 53.74271 | -4.20797 | 17167 ft | 342 kts | 146° |
| 2026-04-22 10:09 | 53.72285 | -4.18500 | 17676 ft | 349 kts | 146° |
| 2026-04-22 10:09 | 53.70259 | -4.16159 | 18208 ft | 357 kts | 146° |
| 2026-04-22 10:09 | 53.68199 | -4.13780 | 18832 ft | 360 kts | 147° |
| 2026-04-22 10:10 | 53.66114 | -4.11378 | 19257 ft | 368 kts | 147° |
| 2026-04-22 10:10 | 53.63969 | -4.08916 | 19651 ft | 376 kts | 147° |
| 2026-04-22 10:10 | 53.61790 | -4.06414 | 20123 ft | 382 kts | 147° |
| 2026-04-22 10:10 | 53.59581 | -4.03881 | 20616 ft | 387 kts | 148° |
| 2026-04-22 10:11 | 53.57373 | -4.01351 | 21102 ft | 392 kts | 148° |
| 2026-04-22 10:11 | 53.55142 | -3.98800 | 21568 ft | 396 kts | 148° |
| 2026-04-22 10:11 | 53.52812 | -3.96134 | 22053 ft | 401 kts | 148° |
| 2026-04-22 10:11 | 53.50472 | -3.93459 | 22551 ft | 405 kts | 148° |
| 2026-04-22 10:12 | 53.48118 | -3.90775 | 23043 ft | 408 kts | 148° |
| 2026-04-22 10:12 | 53.45763 | -3.88092 | 23341 ft | 411 kts | 148° |
| 2026-04-22 10:12 | 53.43451 | -3.85458 | 23394 ft | 398 kts | 148° |
| 2026-04-22 10:12 | 53.41164 | -3.82851 | 23396 ft | 389 kts | 148° |
| 2026-04-22 10:13 | 53.38962 | -3.80353 | 23397 ft | 387 kts | 149° |
| 2026-04-22 10:13 | 53.36705 | -3.77799 | 23386 ft | 386 kts | 149° |
| 2026-04-22 10:13 | 53.34513 | -3.75318 | 23386 ft | 386 kts | 149° |
| 2026-04-22 10:13 | 53.32291 | -3.72806 | 23385 ft | 385 kts | 149° |
| 2026-04-22 10:14 | 53.30068 | -3.70300 | 23385 ft | 385 kts | 149° |
| 2026-04-22 10:14 | 53.27842 | -3.67799 | 23384 ft | 385 kts | 149° |
| 2026-04-22 10:14 | 53.25619 | -3.65303 | 23386 ft | 385 kts | 149° |
| 2026-04-22 10:14 | 53.23390 | -3.62806 | 23386 ft | 385 kts | 149° |
| 2026-04-22 10:15 | 53.21164 | -3.60314 | 23386 ft | 385 kts | 149° |
| 2026-04-22 10:15 | 53.18939 | -3.57821 | 23366 ft | 385 kts | 149° |
| 2026-04-22 10:15 | 53.16711 | -3.55324 | 23367 ft | 386 kts | 149° |
| 2026-04-22 10:15 | 53.14479 | -3.52825 | 23366 ft | 387 kts | 149° |
| 2026-04-22 10:16 | 53.12250 | -3.50335 | 23368 ft | 387 kts | 149° |
| 2026-04-22 10:16 | 53.10012 | -3.47839 | 23365 ft | 387 kts | 149° |
| 2026-04-22 10:16 | 53.07774 | -3.45349 | 23369 ft | 387 kts | 149° |
| 2026-04-22 10:16 | 53.05540 | -3.42863 | 23372 ft | 387 kts | 149° |
| 2026-04-22 10:17 | 53.03303 | -3.40374 | 23372 ft | 387 kts | 149° |
| 2026-04-22 10:17 | 53.01068 | -3.37893 | 23372 ft | 387 kts | 149° |
| 2026-04-22 10:17 | 52.98831 | -3.35417 | 23370 ft | 387 kts | 149° |
| 2026-04-22 10:17 | 52.96590 | -3.32942 | 23370 ft | 387 kts | 149° |
| 2026-04-22 10:18 | 52.94349 | -3.30471 | 23355 ft | 387 kts | 149° |
| 2026-04-22 10:18 | 52.92107 | -3.28003 | 23355 ft | 387 kts | 149° |
| 2026-04-22 10:18 | 52.89864 | -3.25537 | 23355 ft | 387 kts | 149° |
| 2026-04-22 10:18 | 52.87621 | -3.23069 | 23359 ft | 388 kts | 149° |
| 2026-04-22 10:19 | 52.85375 | -3.20594 | 23359 ft | 388 kts | 149° |
| 2026-04-22 10:19 | 52.83127 | -3.18120 | 23360 ft | 388 kts | 149° |
| 2026-04-22 10:19 | 52.80879 | -3.15652 | 23357 ft | 388 kts | 149° |
| 2026-04-22 10:19 | 52.78629 | -3.13187 | 23358 ft | 388 kts | 149° |
| 2026-04-22 10:20 | 52.76376 | -3.10721 | 23360 ft | 388 kts | 149° |
| 2026-04-22 10:20 | 52.74123 | -3.08257 | 23361 ft | 388 kts | 149° |
| 2026-04-22 10:20 | 52.71870 | -3.05795 | 23347 ft | 388 kts | 149° |
| 2026-04-22 10:20 | 52.69618 | -3.03341 | 23355 ft | 388 kts | 149° |
| 2026-04-22 10:21 | 52.67368 | -3.00896 | 23360 ft | 388 kts | 149° |
| 2026-04-22 10:21 | 52.65109 | -2.98478 | 23373 ft | 387 kts | 152° |
| 2026-04-22 10:21 | 52.63539 | -2.97147 | 23373 ft | 384 kts | 159° |
| 2026-04-22 10:21 | 52.60164 | -2.95502 | 23378 ft | 380 kts | 174° |
| 2026-04-22 10:22 | 52.58395 | -2.95223 | 23378 ft | 377 kts | 181° |
| 2026-04-22 10:22 | 52.55803 | -2.95357 | 23178 ft | 369 kts | 186° |
| 2026-04-22 10:22 | 52.53267 | -2.95576 | 22901 ft | 361 kts | 185° |
| 2026-04-22 10:22 | 52.50771 | -2.95793 | 22633 ft | 357 kts | 187° |
| 2026-04-22 10:23 | 52.48297 | -2.96004 | 22356 ft | 355 kts | 185° |
| 2026-04-22 10:23 | 52.45837 | -2.96212 | 22093 ft | 354 kts | 186° |
| 2026-04-22 10:23 | 52.43386 | -2.96417 | 21804 ft | 350 kts | 185° |
| 2026-04-22 10:23 | 52.40970 | -2.96615 | 21398 ft | 347 kts | 186° |
| 2026-04-22 10:24 | 52.38557 | -2.96810 | 20970 ft | 346 kts | 186° |
| 2026-04-22 10:24 | 52.36156 | -2.97004 | 20535 ft | 345 kts | 185° |
| 2026-04-22 10:24 | 52.33758 | -2.97198 | 20090 ft | 344 kts | 184° |
| 2026-04-22 10:24 | 52.31374 | -2.97395 | 19667 ft | 343 kts | 184° |
| 2026-04-22 10:25 | 52.28995 | -2.97590 | 19241 ft | 342 kts | 184° |
| 2026-04-22 10:25 | 52.26617 | -2.97783 | 18820 ft | 342 kts | 183° |
| 2026-04-22 10:25 | 52.24245 | -2.97975 | 18356 ft | 341 kts | 184° |
| 2026-04-22 10:25 | 52.21879 | -2.98165 | 17931 ft | 339 kts | 184° |
| 2026-04-22 10:26 | 52.19529 | -2.98355 | 17518 ft | 337 kts | 183° |
| 2026-04-22 10:26 | 52.17201 | -2.98546 | 17111 ft | 334 kts | 182° |
| 2026-04-22 10:26 | 52.14913 | -2.98732 | 16712 ft | 333 kts | 182° |
| 2026-04-22 10:26 | 52.12573 | -2.98921 | 16299 ft | 331 kts | 182° |
| 2026-04-22 10:27 | 52.10336 | -2.99102 | 16154 ft | 321 kts | 181° |
| 2026-04-22 10:27 | 52.08140 | -2.99280 | 16062 ft | 313 kts | 182° |
| 2026-04-22 10:27 | 52.05974 | -2.99456 | 15944 ft | 311 kts | 181° |
| 2026-04-22 10:27 | 52.03820 | -2.99634 | 15817 ft | 310 kts | 182° |
| 2026-04-22 10:28 | 52.01669 | -2.99809 | 15742 ft | 309 kts | 182° |
| 2026-04-22 10:28 | 51.99527 | -2.99981 | 15630 ft | 307 kts | 182° |
| 2026-04-22 10:28 | 51.97385 | -3.00146 | 15523 ft | 307 kts | 181° |
| 2026-04-22 10:28 | 51.95259 | -3.00055 | 15412 ft | 304 kts | 170° |
| 2026-04-22 10:29 | 51.93211 | -2.99222 | 14989 ft | 306 kts | 159° |
| 2026-04-22 10:29 | 51.91197 | -2.97998 | 14481 ft | 312 kts | 158° |
| 2026-04-22 10:29 | 51.89152 | -2.96758 | 13979 ft | 315 kts | 157° |
| 2026-04-22 10:29 | 51.87119 | -2.95538 | 13653 ft | 310 kts | 158° |
| 2026-04-22 10:30 | 51.85031 | -2.94829 | 13120 ft | 307 kts | 175° |
| 2026-04-22 10:30 | 51.82906 | -2.94786 | 12342 ft | 306 kts | 177° |
| 2026-04-22 10:30 | 51.80788 | -2.94776 | 11642 ft | 302 kts | 176° |
| 2026-04-22 10:30 | 51.78705 | -2.94776 | 10973 ft | 296 kts | 176° |
| 2026-04-22 10:31 | 51.76663 | -2.94775 | 10354 ft | 290 kts | 175° |
| 2026-04-22 10:31 | 51.74706 | -2.94777 | 10020 ft | 274 kts | 175° |
| 2026-04-22 10:31 | 51.72823 | -2.94777 | 9513 ft | 265 kts | 175° |
| 2026-04-22 10:31 | 51.71002 | -2.94771 | 9128 ft | 261 kts | 174° |
| 2026-04-22 10:32 | 51.69191 | -2.94756 | 8752 ft | 259 kts | 174° |
| 2026-04-22 10:32 | 51.67391 | -2.94742 | 8416 ft | 256 kts | 174° |
| 2026-04-22 10:32 | 51.65658 | -2.94738 | 8281 ft | 240 kts | 173° |
| 2026-04-22 10:32 | 51.64032 | -2.94738 | 7953 ft | 229 kts | 173° |
| 2026-04-22 10:33 | 51.62456 | -2.94730 | 7486 ft | 225 kts | 173° |
| 2026-04-22 10:33 | 51.60897 | -2.94720 | 7007 ft | 223 kts | 172° |
| 2026-04-22 10:33 | 51.59338 | -2.94707 | 6526 ft | 228 kts | 172° |
| 2026-04-22 10:33 | 51.57735 | -2.94687 | 6100 ft | 231 kts | 172° |
| 2026-04-22 10:34 | 51.56148 | -2.94680 | 5959 ft | 223 kts | 172° |
| 2026-04-22 10:34 | 51.54633 | -2.94679 | 5768 ft | 212 kts | 171° |
| 2026-04-22 10:34 | 51.53175 | -2.94674 | 5380 ft | 208 kts | 171° |
| 2026-04-22 10:34 | 51.51754 | -2.94671 | 5116 ft | 199 kts | 171° |
| 2026-04-22 10:35 | 51.50391 | -2.94670 | 4755 ft | 194 kts | 170° |
| 2026-04-22 10:35 | 51.49032 | -2.94661 | 4298 ft | 199 kts | 171° |
| 2026-04-22 10:35 | 51.47661 | -2.94646 | 4011 ft | 199 kts | 171° |
| 2026-04-22 10:35 | 51.46271 | -2.94637 | 3783 ft | 195 kts | 171° |
| 2026-04-22 10:36 | 51.44924 | -2.94628 | 3683 ft | 191 kts | 170° |
| 2026-04-22 10:36 | 51.43611 | -2.94621 | 3592 ft | 186 kts | 170° |
| 2026-04-22 10:36 | 51.42340 | -2.94613 | 3511 ft | 185 kts | 170° |
| 2026-04-22 10:36 | 51.41071 | -2.94607 | 3423 ft | 179 kts | 169° |
| 2026-04-22 10:37 | 51.39878 | -2.94289 | 3181 ft | 171 kts | 151° |
| 2026-04-22 10:37 | 51.38161 | -2.92154 | 2934 ft | 150 kts | 120° |
| 2026-04-22 10:37 | 51.37730 | -2.90707 | 2780 ft | 136 kts | 106° |
| 2026-04-22 10:38 | 51.37587 | -2.89278 | 2627 ft | 125 kts | 94° |
| 2026-04-22 10:38 | 51.37629 | -2.87945 | 2494 ft | 113 kts | 90° |
| 2026-04-22 10:38 | 51.37679 | -2.86717 | 2325 ft | 110 kts | 87° |
| 2026-04-22 10:38 | 51.37728 | -2.85492 | 2179 ft | 110 kts | 88° |
| 2026-04-22 10:39 | 51.37777 | -2.84271 | 2031 ft | 110 kts | 87° |
| 2026-04-22 10:39 | 51.37825 | -2.83058 | 1882 ft | 110 kts | 87° |
| 2026-04-22 10:39 | 51.37873 | -2.81856 | 1730 ft | 110 kts | 87° |
| 2026-04-22 10:39 | 51.37923 | -2.80616 | 1572 ft | 111 kts | 86° |
| 2026-04-22 10:40 | 51.37972 | -2.79377 | 1418 ft | 112 kts | 84° |
| 2026-04-22 10:40 | 51.38023 | -2.78141 | 1277 ft | 111 kts | 85° |
| 2026-04-22 10:40 | 51.38073 | -2.76870 | 1158 ft | 116 kts | 86° |
| 2026-04-22 10:40 | 51.38122 | -2.75561 | 990 ft | 120 kts | 85° |
| 2026-04-22 10:41 | 51.38176 | -2.74234 | 765 ft | 118 kts | 85° |
| 2026-04-22 10:41 | 51.38231 | -2.72940 | 652 ft | 112 kts | 86° |
| 2026-04-22 10:41 | 51.38271 | -2.71836 | 621 ft | 83 kts | 88° |
| 2026-04-22 10:41 | 51.38297 | -2.71230 | 618 ft | 45 kts | 87° |
| 2026-04-22 10:42 | 51.38309 | -2.70840 | 616 ft | 16 kts | 87° |
| 2026-04-22 10:42 | 51.38378 | -2.70742 | 616 ft | 13 kts | 20° |
| 2026-04-22 10:42 | 51.38457 | -2.70719 | 611 ft | 10 kts | 331° |
| 2026-04-22 10:42 | 51.38469 | -2.70814 | 617 ft | 7 kts | 268° |
| 2026-04-22 10:43 | 51.38466 | -2.70938 | 614 ft | 19 kts | 267° |
| 2026-04-22 10:43 | 51.38460 | -2.71085 | 615 ft | 8 kts | 266° |
| 2026-04-22 10:43 | 51.38489 | -2.71136 | 615 ft | 4 kts | 358° |
| 2026-04-22 10:43 | 51.38515 | -2.71141 | 611 ft | 1 kts | 356° |
| 2026-04-22 10:44 | 51.38521 | -2.71141 | 611 ft | 0 kts | 356° |